sensor_id;sensor_type;location;lat;lon;timestamp;P1;durP1;ratioP1;P2;durP2;ratioP2
23680;SDS011;62915;50.832;4.462;2022-09-21T00:00:35;6.43;;;4.70;;
23680;SDS011;62915;50.832;4.462;2022-09-21T00:03:01;7.35;;;4.25;;
23680;SDS011;62915;50.832;4.462;2022-09-21T00:05:28;6.05;;;3.60;;
23680;SDS011;62915;50.832;4.462;2022-09-21T00:07:54;6.28;;;4.20;;
23680;SDS011;62915;50.832;4.462;2022-09-21T00:10:20;7.88;;;4.63;;
23680;SDS011;62915;50.832;4.462;2022-09-21T00:12:47;8.65;;;4.30;;
23680;SDS011;62915;50.832;4.462;2022-09-21T00:15:13;10.40;;;3.95;;
23680;SDS011;62915;50.832;4.462;2022-09-21T00:17:42;9.13;;;4.10;;
23680;SDS011;62915;50.832;4.462;2022-09-21T00:20:09;6.30;;;4.55;;
23680;SDS011;62915;50.832;4.462;2022-09-21T00:22:35;7.05;;;4.32;;
23680;SDS011;62915;50.832;4.462;2022-09-21T00:25:02;9.15;;;4.15;;
23680;SDS011;62915;50.832;4.462;2022-09-21T00:27:28;10.27;;;4.00;;
23680;SDS011;62915;50.832;4.462;2022-09-21T00:29:55;14.82;;;4.65;;
23680;SDS011;62915;50.832;4.462;2022-09-21T00:32:26;6.60;;;4.13;;
23680;SDS011;62915;50.832;4.462;2022-09-21T00:34:58;5.25;;;3.67;;
23680;SDS011;62915;50.832;4.462;2022-09-21T00:37:25;7.80;;;4.40;;
23680;SDS011;62915;50.832;4.462;2022-09-21T00:39:51;7.32;;;4.18;;
23680;SDS011;62915;50.832;4.462;2022-09-21T00:42:36;8.57;;;3.85;;
23680;SDS011;62915;50.832;4.462;2022-09-21T00:47:30;7.20;;;3.60;;
23680;SDS011;62915;50.832;4.462;2022-09-21T00:50:11;7.63;;;4.50;;
23680;SDS011;62915;50.832;4.462;2022-09-21T00:52:40;8.18;;;4.30;;
23680;SDS011;62915;50.832;4.462;2022-09-21T00:57:41;12.82;;;4.45;;
23680;SDS011;62915;50.832;4.462;2022-09-21T01:00:09;10.65;;;3.60;;
23680;SDS011;62915;50.832;4.462;2022-09-21T01:02:35;8.00;;;4.20;;
23680;SDS011;62915;50.832;4.462;2022-09-21T01:05:03;6.07;;;3.95;;
23680;SDS011;62915;50.832;4.462;2022-09-21T01:07:30;6.47;;;4.20;;
23680;SDS011;62915;50.832;4.462;2022-09-21T01:10:00;6.97;;;4.00;;
23680;SDS011;62915;50.832;4.462;2022-09-21T01:15:39;6.78;;;4.50;;
23680;SDS011;62915;50.832;4.462;2022-09-21T01:18:33;6.43;;;3.75;;
23680;SDS011;62915;50.832;4.462;2022-09-21T01:27:18;8.02;;;4.03;;
23680;SDS011;62915;50.832;4.462;2022-09-21T01:30:06;6.32;;;4.35;;
23680;SDS011;62915;50.832;4.462;2022-09-21T01:35:26;6.15;;;3.92;;
23680;SDS011;62915;50.832;4.462;2022-09-21T01:38:21;10.15;;;4.15;;
23680;SDS011;62915;50.832;4.462;2022-09-21T01:41:00;8.57;;;4.20;;
23680;SDS011;62915;50.832;4.462;2022-09-21T01:43:38;9.20;;;3.95;;
23680;SDS011;62915;50.832;4.462;2022-09-21T01:46:10;6.90;;;4.32;;
23680;SDS011;62915;50.832;4.462;2022-09-21T01:48:41;7.40;;;4.22;;
23680;SDS011;62915;50.832;4.462;2022-09-21T01:51:10;9.88;;;4.72;;
23680;SDS011;62915;50.832;4.462;2022-09-21T01:56:35;6.13;;;4.53;;
23680;SDS011;62915;50.832;4.462;2022-09-21T01:59:34;9.32;;;4.38;;
23680;SDS011;62915;50.832;4.462;2022-09-21T02:02:15;6.82;;;4.68;;
23680;SDS011;62915;50.832;4.462;2022-09-21T02:05:05;8.38;;;4.80;;
23680;SDS011;62915;50.832;4.462;2022-09-21T02:07:32;8.85;;;4.20;;
23680;SDS011;62915;50.832;4.462;2022-09-21T02:10:00;7.28;;;4.38;;
23680;SDS011;62915;50.832;4.462;2022-09-21T02:12:28;7.47;;;4.82;;
23680;SDS011;62915;50.832;4.462;2022-09-21T02:14:57;9.73;;;5.00;;
23680;SDS011;62915;50.832;4.462;2022-09-21T02:18:10;17.27;;;4.90;;
23680;SDS011;62915;50.832;4.462;2022-09-21T02:20:35;7.60;;;4.50;;
23680;SDS011;62915;50.832;4.462;2022-09-21T02:23:26;11.85;;;5.57;;
23680;SDS011;62915;50.832;4.462;2022-09-21T02:26:08;6.85;;;4.82;;
23680;SDS011;62915;50.832;4.462;2022-09-21T02:28:44;8.15;;;4.55;;
23680;SDS011;62915;50.832;4.462;2022-09-21T02:34:04;8.73;;;4.40;;
23680;SDS011;62915;50.832;4.462;2022-09-21T02:36:47;7.45;;;4.50;;
23680;SDS011;62915;50.832;4.462;2022-09-21T02:39:18;7.40;;;5.13;;
23680;SDS011;62915;50.832;4.462;2022-09-21T02:42:08;8.38;;;4.57;;
23680;SDS011;62915;50.832;4.462;2022-09-21T02:44:50;10.65;;;4.65;;
23680;SDS011;62915;50.832;4.462;2022-09-21T02:47:25;8.35;;;4.82;;
23680;SDS011;62915;50.832;4.462;2022-09-21T02:49:59;8.38;;;4.80;;
23680;SDS011;62915;50.832;4.462;2022-09-21T02:52:31;7.68;;;5.32;;
23680;SDS011;62915;50.832;4.462;2022-09-21T02:54:59;9.68;;;4.90;;
23680;SDS011;62915;50.832;4.462;2022-09-21T02:57:26;10.85;;;5.32;;
23680;SDS011;62915;50.832;4.462;2022-09-21T02:59:52;7.40;;;4.85;;
23680;SDS011;62915;50.832;4.462;2022-09-21T03:02:18;8.57;;;4.97;;
23680;SDS011;62915;50.832;4.462;2022-09-21T03:04:44;6.18;;;5.15;;
23680;SDS011;62915;50.832;4.462;2022-09-21T03:07:15;6.53;;;4.10;;
23680;SDS011;62915;50.832;4.462;2022-09-21T03:09:41;9.07;;;5.50;;
23680;SDS011;62915;50.832;4.462;2022-09-21T03:12:07;6.30;;;4.88;;
23680;SDS011;62915;50.832;4.462;2022-09-21T03:14:33;5.95;;;4.65;;
23680;SDS011;62915;50.832;4.462;2022-09-21T03:16:59;6.10;;;4.43;;
23680;SDS011;62915;50.832;4.462;2022-09-21T03:19:24;8.38;;;4.95;;
23680;SDS011;62915;50.832;4.462;2022-09-21T03:21:50;11.98;;;5.00;;
23680;SDS011;62915;50.832;4.462;2022-09-21T03:24:16;14.50;;;5.53;;
23680;SDS011;62915;50.832;4.462;2022-09-21T03:27:02;8.27;;;5.22;;
23680;SDS011;62915;50.832;4.462;2022-09-21T03:29:28;9.75;;;5.00;;
23680;SDS011;62915;50.832;4.462;2022-09-21T03:31:53;9.65;;;5.15;;
23680;SDS011;62915;50.832;4.462;2022-09-21T03:34:20;6.20;;;5.20;;
23680;SDS011;62915;50.832;4.462;2022-09-21T03:36:45;9.60;;;4.97;;
23680;SDS011;62915;50.832;4.462;2022-09-21T03:39:12;8.82;;;4.93;;
23680;SDS011;62915;50.832;4.462;2022-09-21T03:41:38;8.65;;;5.20;;
23680;SDS011;62915;50.832;4.462;2022-09-21T03:44:04;7.15;;;4.95;;
23680;SDS011;62915;50.832;4.462;2022-09-21T03:46:30;11.20;;;5.50;;
23680;SDS011;62915;50.832;4.462;2022-09-21T03:49:00;7.85;;;4.97;;
23680;SDS011;62915;50.832;4.462;2022-09-21T03:51:27;11.13;;;4.80;;
23680;SDS011;62915;50.832;4.462;2022-09-21T03:53:55;10.70;;;4.93;;
23680;SDS011;62915;50.832;4.462;2022-09-21T03:56:21;10.70;;;5.53;;
23680;SDS011;62915;50.832;4.462;2022-09-21T03:58:47;9.82;;;5.03;;
23680;SDS011;62915;50.832;4.462;2022-09-21T04:01:13;9.75;;;5.88;;
23680;SDS011;62915;50.832;4.462;2022-09-21T04:03:39;8.32;;;5.95;;
23680;SDS011;62915;50.832;4.462;2022-09-21T04:06:11;8.35;;;5.45;;
23680;SDS011;62915;50.832;4.462;2022-09-21T04:08:38;8.77;;;5.82;;
23680;SDS011;62915;50.832;4.462;2022-09-21T04:11:10;9.68;;;5.78;;
23680;SDS011;62915;50.832;4.462;2022-09-21T04:13:37;8.07;;;5.60;;
23680;SDS011;62915;50.832;4.462;2022-09-21T04:16:05;9.95;;;6.15;;
23680;SDS011;62915;50.832;4.462;2022-09-21T04:18:31;8.57;;;6.07;;
23680;SDS011;62915;50.832;4.462;2022-09-21T04:20:57;5.70;;;5.10;;
23680;SDS011;62915;50.832;4.462;2022-09-21T04:23:24;11.60;;;6.55;;
23680;SDS011;62915;50.832;4.462;2022-09-21T04:25:52;31.55;;;18.27;;
23680;SDS011;62915;50.832;4.462;2022-09-21T04:28:19;35.85;;;25.35;;
23680;SDS011;62915;50.832;4.462;2022-09-21T04:30:45;32.63;;;24.15;;
23680;SDS011;62915;50.832;4.462;2022-09-21T04:33:11;32.17;;;21.58;;
23680;SDS011;62915;50.832;4.462;2022-09-21T04:35:38;21.00;;;12.85;;
23680;SDS011;62915;50.832;4.462;2022-09-21T04:38:04;19.20;;;13.68;;
23680;SDS011;62915;50.832;4.462;2022-09-21T04:40:30;24.08;;;16.77;;
23680;SDS011;62915;50.832;4.462;2022-09-21T04:42:55;21.20;;;13.40;;
23680;SDS011;62915;50.832;4.462;2022-09-21T04:45:22;13.88;;;9.00;;
23680;SDS011;62915;50.832;4.462;2022-09-21T04:47:48;9.73;;;7.68;;
23680;SDS011;62915;50.832;4.462;2022-09-21T04:50:14;11.70;;;7.90;;
23680;SDS011;62915;50.832;4.462;2022-09-21T04:52:40;12.13;;;6.95;;
23680;SDS011;62915;50.832;4.462;2022-09-21T04:55:06;12.88;;;7.72;;
23680;SDS011;62915;50.832;4.462;2022-09-21T04:57:32;12.15;;;8.10;;
23680;SDS011;62915;50.832;4.462;2022-09-21T04:59:59;13.27;;;7.20;;
23680;SDS011;62915;50.832;4.462;2022-09-21T05:02:26;13.70;;;7.75;;
23680;SDS011;62915;50.832;4.462;2022-09-21T05:04:52;12.82;;;8.82;;
23680;SDS011;62915;50.832;4.462;2022-09-21T05:07:18;14.27;;;8.98;;
23680;SDS011;62915;50.832;4.462;2022-09-21T05:09:44;13.02;;;8.77;;
23680;SDS011;62915;50.832;4.462;2022-09-21T05:12:28;15.73;;;8.57;;
23680;SDS011;62915;50.832;4.462;2022-09-21T05:14:55;15.25;;;9.43;;
23680;SDS011;62915;50.832;4.462;2022-09-21T05:17:21;15.77;;;9.70;;
23680;SDS011;62915;50.832;4.462;2022-09-21T05:19:47;12.70;;;10.35;;
23680;SDS011;62915;50.832;4.462;2022-09-21T05:22:13;16.75;;;10.25;;
23680;SDS011;62915;50.832;4.462;2022-09-21T05:24:39;12.63;;;9.13;;
23680;SDS011;62915;50.832;4.462;2022-09-21T05:27:05;12.65;;;9.85;;
23680;SDS011;62915;50.832;4.462;2022-09-21T05:29:30;11.55;;;9.13;;
23680;SDS011;62915;50.832;4.462;2022-09-21T05:32:00;12.52;;;10.20;;
23680;SDS011;62915;50.832;4.462;2022-09-21T05:37:35;17.00;;;11.35;;
23680;SDS011;62915;50.832;4.462;2022-09-21T05:40:12;16.52;;;11.45;;
23680;SDS011;62915;50.832;4.462;2022-09-21T05:42:39;14.98;;;10.48;;
23680;SDS011;62915;50.832;4.462;2022-09-21T05:45:05;13.63;;;9.60;;
23680;SDS011;62915;50.832;4.462;2022-09-21T05:56:03;16.92;;;11.27;;
23680;SDS011;62915;50.832;4.462;2022-09-21T06:04:37;16.70;;;11.70;;
23680;SDS011;62915;50.832;4.462;2022-09-21T06:07:03;21.10;;;11.30;;
23680;SDS011;62915;50.832;4.462;2022-09-21T06:09:29;17.92;;;11.85;;
23680;SDS011;62915;50.832;4.462;2022-09-21T06:11:55;19.17;;;12.25;;
23680;SDS011;62915;50.832;4.462;2022-09-21T06:14:21;16.70;;;12.38;;
23680;SDS011;62915;50.832;4.462;2022-09-21T06:16:50;17.63;;;12.30;;
23680;SDS011;62915;50.832;4.462;2022-09-21T06:19:16;21.38;;;13.80;;
23680;SDS011;62915;50.832;4.462;2022-09-21T06:21:42;19.85;;;14.07;;
23680;SDS011;62915;50.832;4.462;2022-09-21T06:24:08;19.83;;;14.20;;
23680;SDS011;62915;50.832;4.462;2022-09-21T06:26:34;24.30;;;14.77;;
23680;SDS011;62915;50.832;4.462;2022-09-21T06:29:00;25.23;;;15.40;;
23680;SDS011;62915;50.832;4.462;2022-09-21T06:31:26;30.58;;;17.30;;
23680;SDS011;62915;50.832;4.462;2022-09-21T06:33:52;26.58;;;17.13;;
23680;SDS011;62915;50.832;4.462;2022-09-21T06:36:17;21.60;;;16.27;;
23680;SDS011;62915;50.832;4.462;2022-09-21T06:38:43;19.45;;;14.75;;
23680;SDS011;62915;50.832;4.462;2022-09-21T06:41:09;22.55;;;15.98;;
23680;SDS011;62915;50.832;4.462;2022-09-21T06:43:35;22.23;;;15.48;;
23680;SDS011;62915;50.832;4.462;2022-09-21T06:46:01;25.10;;;16.83;;
23680;SDS011;62915;50.832;4.462;2022-09-21T06:48:28;25.55;;;18.10;;
23680;SDS011;62915;50.832;4.462;2022-09-21T06:51:01;28.15;;;19.08;;
23680;SDS011;62915;50.832;4.462;2022-09-21T06:56:05;27.48;;;19.90;;
23680;SDS011;62915;50.832;4.462;2022-09-21T06:58:32;29.45;;;20.48;;
23680;SDS011;62915;50.832;4.462;2022-09-21T07:01:08;29.05;;;19.88;;
23680;SDS011;62915;50.832;4.462;2022-09-21T07:03:35;30.27;;;19.67;;
23680;SDS011;62915;50.832;4.462;2022-09-21T07:06:02;27.27;;;18.63;;
23680;SDS011;62915;50.832;4.462;2022-09-21T07:08:28;27.83;;;18.63;;
23680;SDS011;62915;50.832;4.462;2022-09-21T07:10:56;26.65;;;17.70;;
23680;SDS011;62915;50.832;4.462;2022-09-21T07:13:23;26.70;;;18.60;;
23680;SDS011;62915;50.832;4.462;2022-09-21T07:15:49;27.20;;;18.77;;
23680;SDS011;62915;50.832;4.462;2022-09-21T07:18:15;25.10;;;17.23;;
23680;SDS011;62915;50.832;4.462;2022-09-21T07:20:41;26.50;;;15.82;;
23680;SDS011;62915;50.832;4.462;2022-09-21T07:23:13;20.25;;;15.90;;
23680;SDS011;62915;50.832;4.462;2022-09-21T07:25:41;23.13;;;15.65;;
23680;SDS011;62915;50.832;4.462;2022-09-21T07:28:08;21.98;;;15.20;;
23680;SDS011;62915;50.832;4.462;2022-09-21T07:30:35;19.48;;;15.82;;
23680;SDS011;62915;50.832;4.462;2022-09-21T07:33:02;24.60;;;15.63;;
23680;SDS011;62915;50.832;4.462;2022-09-21T07:35:28;25.95;;;17.15;;
23680;SDS011;62915;50.832;4.462;2022-09-21T07:37:56;23.58;;;16.50;;
23680;SDS011;62915;50.832;4.462;2022-09-21T07:40:22;26.95;;;17.40;;
23680;SDS011;62915;50.832;4.462;2022-09-21T07:42:48;32.80;;;18.10;;
23680;SDS011;62915;50.832;4.462;2022-09-21T07:45:14;25.67;;;16.88;;
23680;SDS011;62915;50.832;4.462;2022-09-21T07:47:40;25.70;;;16.02;;
23680;SDS011;62915;50.832;4.462;2022-09-21T07:50:05;29.17;;;16.40;;
23680;SDS011;62915;50.832;4.462;2022-09-21T07:52:31;23.48;;;16.20;;
23680;SDS011;62915;50.832;4.462;2022-09-21T07:54:57;30.38;;;18.33;;
23680;SDS011;62915;50.832;4.462;2022-09-21T07:57:22;26.90;;;17.35;;
23680;SDS011;62915;50.832;4.462;2022-09-21T08:00:07;28.15;;;17.08;;
23680;SDS011;62915;50.832;4.462;2022-09-21T08:02:33;28.83;;;18.08;;
23680;SDS011;62915;50.832;4.462;2022-09-21T08:04:59;26.42;;;16.80;;
23680;SDS011;62915;50.832;4.462;2022-09-21T08:07:24;28.27;;;17.73;;
23680;SDS011;62915;50.832;4.462;2022-09-21T08:09:51;24.23;;;18.17;;
23680;SDS011;62915;50.832;4.462;2022-09-21T08:12:17;29.55;;;17.10;;
23680;SDS011;62915;50.832;4.462;2022-09-21T08:14:44;27.13;;;17.27;;
23680;SDS011;62915;50.832;4.462;2022-09-21T08:17:12;34.10;;;17.98;;
23680;SDS011;62915;50.832;4.462;2022-09-21T08:19:38;32.15;;;17.48;;
23680;SDS011;62915;50.832;4.462;2022-09-21T08:22:04;21.90;;;16.13;;
23680;SDS011;62915;50.832;4.462;2022-09-21T08:24:30;23.55;;;17.58;;
23680;SDS011;62915;50.832;4.462;2022-09-21T08:26:57;26.67;;;17.30;;
23680;SDS011;62915;50.832;4.462;2022-09-21T08:29:23;23.42;;;14.75;;
23680;SDS011;62915;50.832;4.462;2022-09-21T08:31:49;23.83;;;14.20;;
23680;SDS011;62915;50.832;4.462;2022-09-21T08:34:16;18.85;;;11.48;;
23680;SDS011;62915;50.832;4.462;2022-09-21T08:36:43;20.52;;;9.85;;
23680;SDS011;62915;50.832;4.462;2022-09-21T08:39:10;13.13;;;7.65;;
23680;SDS011;62915;50.832;4.462;2022-09-21T08:44:20;16.90;;;8.45;;
23680;SDS011;62915;50.832;4.462;2022-09-21T08:47:11;10.75;;;4.93;;
23680;SDS011;62915;50.832;4.462;2022-09-21T08:49:39;9.75;;;5.18;;
23680;SDS011;62915;50.832;4.462;2022-09-21T08:52:12;11.77;;;7.03;;
23680;SDS011;62915;50.832;4.462;2022-09-21T08:54:58;10.65;;;7.05;;
23680;SDS011;62915;50.832;4.462;2022-09-21T08:57:28;9.20;;;5.80;;
23680;SDS011;62915;50.832;4.462;2022-09-21T08:59:55;12.93;;;5.70;;
23680;SDS011;62915;50.832;4.462;2022-09-21T09:13:16;12.20;;;6.65;;
23680;SDS011;62915;50.832;4.462;2022-09-21T09:16:02;8.60;;;3.85;;
23680;SDS011;62915;50.832;4.462;2022-09-21T09:21:30;9.05;;;3.88;;
23680;SDS011;62915;50.832;4.462;2022-09-21T09:24:08;9.75;;;4.10;;
23680;SDS011;62915;50.832;4.462;2022-09-21T09:26:54;6.40;;;4.25;;
23680;SDS011;62915;50.832;4.462;2022-09-21T09:29:47;9.45;;;4.38;;
23680;SDS011;62915;50.832;4.462;2022-09-21T09:35:01;9.02;;;3.97;;
23680;SDS011;62915;50.832;4.462;2022-09-21T09:37:33;8.60;;;3.53;;
23680;SDS011;62915;50.832;4.462;2022-09-21T09:40:04;5.43;;;2.30;;
23680;SDS011;62915;50.832;4.462;2022-09-21T09:45:23;8.77;;;2.72;;
23680;SDS011;62915;50.832;4.462;2022-09-21T09:48:23;4.75;;;1.98;;
23680;SDS011;62915;50.832;4.462;2022-09-21T09:51:01;5.90;;;2.50;;
23680;SDS011;62915;50.832;4.462;2022-09-21T09:53:27;5.28;;;2.13;;
23680;SDS011;62915;50.832;4.462;2022-09-21T09:55:54;6.53;;;2.75;;
23680;SDS011;62915;50.832;4.462;2022-09-21T09:58:21;4.55;;;2.17;;
23680;SDS011;62915;50.832;4.462;2022-09-21T10:00:52;5.80;;;1.80;;
23680;SDS011;62915;50.832;4.462;2022-09-21T10:03:20;4.90;;;1.67;;
23680;SDS011;62915;50.832;4.462;2022-09-21T10:05:48;2.75;;;1.25;;
23680;SDS011;62915;50.832;4.462;2022-09-21T10:08:28;2.92;;;1.05;;
23680;SDS011;62915;50.832;4.462;2022-09-21T10:11:10;2.45;;;0.90;;
23680;SDS011;62915;50.832;4.462;2022-09-21T10:13:41;3.92;;;1.10;;
23680;SDS011;62915;50.832;4.462;2022-09-21T10:16:22;1.42;;;0.80;;
23680;SDS011;62915;50.832;4.462;2022-09-21T10:18:48;5.63;;;1.23;;
23680;SDS011;62915;50.832;4.462;2022-09-21T10:23:52;4.03;;;1.20;;
23680;SDS011;62915;50.832;4.462;2022-09-21T10:26:23;4.55;;;1.15;;
23680;SDS011;62915;50.832;4.462;2022-09-21T10:28:58;2.90;;;0.60;;
23680;SDS011;62915;50.832;4.462;2022-09-21T10:31:26;4.35;;;1.08;;
23680;SDS011;62915;50.832;4.462;2022-09-21T10:36:32;5.60;;;1.45;;
23680;SDS011;62915;50.832;4.462;2022-09-21T10:41:48;5.70;;;1.25;;
23680;SDS011;62915;50.832;4.462;2022-09-21T10:44:17;5.68;;;1.30;;
23680;SDS011;62915;50.832;4.462;2022-09-21T10:46:45;4.95;;;1.10;;
23680;SDS011;62915;50.832;4.462;2022-09-21T10:49:13;5.88;;;1.50;;
23680;SDS011;62915;50.832;4.462;2022-09-21T10:51:51;4.60;;;1.48;;
23680;SDS011;62915;50.832;4.462;2022-09-21T10:54:22;3.30;;;1.15;;
23680;SDS011;62915;50.832;4.462;2022-09-21T10:57:01;5.68;;;1.52;;
23680;SDS011;62915;50.832;4.462;2022-09-21T10:59:32;4.72;;;1.35;;
23680;SDS011;62915;50.832;4.462;2022-09-21T11:02:00;4.53;;;1.00;;
23680;SDS011;62915;50.832;4.462;2022-09-21T11:04:50;9.48;;;1.63;;
23680;SDS011;62915;50.832;4.462;2022-09-21T11:10:27;2.47;;;1.02;;
23680;SDS011;62915;50.832;4.462;2022-09-21T11:13:19;6.63;;;1.23;;
23680;SDS011;62915;50.832;4.462;2022-09-21T11:16:02;3.38;;;1.17;;
23680;SDS011;62915;50.832;4.462;2022-09-21T11:18:59;10.02;;;1.30;;
23680;SDS011;62915;50.832;4.462;2022-09-21T11:27:12;4.97;;;1.20;;
23680;SDS011;62915;50.832;4.462;2022-09-21T11:29:51;3.17;;;1.15;;
23680;SDS011;62915;50.832;4.462;2022-09-21T11:35:07;5.90;;;1.25;;
23680;SDS011;62915;50.832;4.462;2022-09-21T11:37:59;5.50;;;1.17;;
23680;SDS011;62915;50.832;4.462;2022-09-21T11:46:24;3.25;;;0.90;;
23680;SDS011;62915;50.832;4.462;2022-09-21T12:15:38;4.68;;;1.00;;
23680;SDS011;62915;50.832;4.462;2022-09-21T12:19:04;6.05;;;1.00;;
23680;SDS011;62915;50.832;4.462;2022-09-21T12:21:23;4.47;;;1.40;;
23680;SDS011;62915;50.832;4.462;2022-09-21T12:23:58;5.85;;;1.35;;
23680;SDS011;62915;50.832;4.462;2022-09-21T12:26:37;2.53;;;0.70;;
23680;SDS011;62915;50.832;4.462;2022-09-21T12:29:27;3.72;;;0.95;;
23680;SDS011;62915;50.832;4.462;2022-09-21T12:32:01;4.60;;;1.05;;
23680;SDS011;62915;50.832;4.462;2022-09-21T12:37:25;3.15;;;0.80;;
23680;SDS011;62915;50.832;4.462;2022-09-21T12:40:27;1.38;;;0.52;;
23680;SDS011;62915;50.832;4.462;2022-09-21T12:51:03;5.28;;;0.88;;
23680;SDS011;62915;50.832;4.462;2022-09-21T12:53:55;2.88;;;0.90;;
23680;SDS011;62915;50.832;4.462;2022-09-21T12:59:05;2.63;;;1.02;;
23680;SDS011;62915;50.832;4.462;2022-09-21T13:09:45;3.40;;;1.13;;
23680;SDS011;62915;50.832;4.462;2022-09-21T13:12:20;2.88;;;1.00;;
23680;SDS011;62915;50.832;4.462;2022-09-21T13:14:58;2.05;;;0.85;;
23680;SDS011;62915;50.832;4.462;2022-09-21T13:17:29;4.07;;;1.08;;
23680;SDS011;62915;50.832;4.462;2022-09-21T13:22:34;2.30;;;0.90;;
23680;SDS011;62915;50.832;4.462;2022-09-21T13:33:01;9.02;;;1.10;;
23680;SDS011;62915;50.832;4.462;2022-09-21T13:35:50;5.10;;;1.38;;
23680;SDS011;62915;50.832;4.462;2022-09-21T13:38:30;5.05;;;1.20;;
23680;SDS011;62915;50.832;4.462;2022-09-21T13:49:18;7.13;;;1.20;;
23680;SDS011;62915;50.832;4.462;2022-09-21T13:51:56;3.70;;;1.50;;
23680;SDS011;62915;50.832;4.462;2022-09-21T13:57:17;8.18;;;1.52;;
23680;SDS011;62915;50.832;4.462;2022-09-21T14:00:04;2.28;;;1.10;;
23680;SDS011;62915;50.832;4.462;2022-09-21T14:02:35;3.47;;;1.35;;
23680;SDS011;62915;50.832;4.462;2022-09-21T14:05:06;6.25;;;1.40;;
23680;SDS011;62915;50.832;4.462;2022-09-21T14:07:32;3.85;;;1.33;;
23680;SDS011;62915;50.832;4.462;2022-09-21T14:10:01;4.80;;;1.30;;
23680;SDS011;62915;50.832;4.462;2022-09-21T14:12:32;6.45;;;1.20;;
23680;SDS011;62915;50.832;4.462;2022-09-21T14:15:45;7.55;;;1.40;;
23680;SDS011;62915;50.832;4.462;2022-09-21T14:20:40;5.68;;;1.65;;
23680;SDS011;62915;50.832;4.462;2022-09-21T14:24:07;3.92;;;1.27;;
23680;SDS011;62915;50.832;4.462;2022-09-21T14:26:44;4.88;;;0.90;;
23680;SDS011;62915;50.832;4.462;2022-09-21T14:32:21;10.70;;;1.27;;
23680;SDS011;62915;50.832;4.462;2022-09-21T14:34:58;5.30;;;1.35;;
23680;SDS011;62915;50.832;4.462;2022-09-21T14:37:33;2.25;;;0.88;;
23680;SDS011;62915;50.832;4.462;2022-09-21T14:40:18;2.25;;;0.85;;
23680;SDS011;62915;50.832;4.462;2022-09-21T14:42:53;3.55;;;1.08;;
23680;SDS011;62915;50.832;4.462;2022-09-21T14:45:40;2.33;;;0.80;;
23680;SDS011;62915;50.832;4.462;2022-09-21T14:56:48;5.90;;;1.50;;
23680;SDS011;62915;50.832;4.462;2022-09-21T15:02:30;6.03;;;1.10;;
23680;SDS011;62915;50.832;4.462;2022-09-21T15:10:36;2.53;;;1.17;;
23680;SDS011;62915;50.832;4.462;2022-09-21T15:18:43;4.22;;;0.98;;
23680;SDS011;62915;50.832;4.462;2022-09-21T15:23:46;2.55;;;0.90;;
23680;SDS011;62915;50.832;4.462;2022-09-21T15:26:14;4.78;;;0.98;;
23680;SDS011;62915;50.832;4.462;2022-09-21T15:28:45;4.40;;;1.15;;
23680;SDS011;62915;50.832;4.462;2022-09-21T15:31:17;6.25;;;1.25;;
23680;SDS011;62915;50.832;4.462;2022-09-21T15:33:43;4.45;;;1.20;;
23680;SDS011;62915;50.832;4.462;2022-09-21T15:36:12;5.28;;;1.17;;
23680;SDS011;62915;50.832;4.462;2022-09-21T15:38:48;4.53;;;1.08;;
23680;SDS011;62915;50.832;4.462;2022-09-21T15:46:51;3.15;;;1.10;;
23680;SDS011;62915;50.832;4.462;2022-09-21T15:49:25;5.38;;;1.17;;
23680;SDS011;62915;50.832;4.462;2022-09-21T16:02:50;6.18;;;1.40;;
23680;SDS011;62915;50.832;4.462;2022-09-21T16:05:48;4.70;;;1.02;;
23680;SDS011;62915;50.832;4.462;2022-09-21T16:10:50;2.92;;;1.05;;
23680;SDS011;62915;50.832;4.462;2022-09-21T16:13:22;4.13;;;1.17;;
23680;SDS011;62915;50.832;4.462;2022-09-21T16:18:47;1.73;;;1.20;;
23680;SDS011;62915;50.832;4.462;2022-09-21T16:21:16;3.55;;;1.40;;
23680;SDS011;62915;50.832;4.462;2022-09-21T16:26:27;5.22;;;1.70;;
23680;SDS011;62915;50.832;4.462;2022-09-21T16:29:20;5.13;;;1.33;;
23680;SDS011;62915;50.832;4.462;2022-09-21T16:31:55;7.82;;;2.05;;
23680;SDS011;62915;50.832;4.462;2022-09-21T16:34:43;6.07;;;1.70;;
23680;SDS011;62915;50.832;4.462;2022-09-21T16:39:50;6.00;;;1.55;;
23680;SDS011;62915;50.832;4.462;2022-09-21T16:42:21;4.43;;;1.40;;
23680;SDS011;62915;50.832;4.462;2022-09-21T16:44:48;3.63;;;1.25;;
23680;SDS011;62915;50.832;4.462;2022-09-21T16:47:23;3.65;;;1.50;;
23680;SDS011;62915;50.832;4.462;2022-09-21T16:49:51;3.75;;;1.63;;
23680;SDS011;62915;50.832;4.462;2022-09-21T16:52:25;3.65;;;1.70;;
23680;SDS011;62915;50.832;4.462;2022-09-21T16:54:54;6.22;;;1.33;;
23680;SDS011;62915;50.832;4.462;2022-09-21T16:57:22;2.50;;;1.02;;
23680;SDS011;62915;50.832;4.462;2022-09-21T16:59:49;5.32;;;1.70;;
23680;SDS011;62915;50.832;4.462;2022-09-21T17:02:15;5.13;;;1.80;;
23680;SDS011;62915;50.832;4.462;2022-09-21T17:04:42;3.63;;;1.50;;
23680;SDS011;62915;50.832;4.462;2022-09-21T17:07:11;8.32;;;1.80;;
23680;SDS011;62915;50.832;4.462;2022-09-21T17:09:39;5.43;;;1.88;;
23680;SDS011;62915;50.832;4.462;2022-09-21T17:12:10;3.65;;;2.05;;
23680;SDS011;62915;50.832;4.462;2022-09-21T17:14:37;8.70;;;2.30;;
23680;SDS011;62915;50.832;4.462;2022-09-21T17:17:06;3.53;;;2.10;;
23680;SDS011;62915;50.832;4.462;2022-09-21T17:19:36;7.28;;;2.30;;
23680;SDS011;62915;50.832;4.462;2022-09-21T17:22:02;5.10;;;2.45;;
23680;SDS011;62915;50.832;4.462;2022-09-21T17:24:31;4.07;;;2.15;;
23680;SDS011;62915;50.832;4.462;2022-09-21T17:26:57;4.72;;;2.13;;
23680;SDS011;62915;50.832;4.462;2022-09-21T17:29:24;4.05;;;2.20;;
23680;SDS011;62915;50.832;4.462;2022-09-21T17:31:57;2.90;;;2.15;;
23680;SDS011;62915;50.832;4.462;2022-09-21T17:34:23;10.23;;;3.88;;
23680;SDS011;62915;50.832;4.462;2022-09-21T17:36:51;10.95;;;5.90;;
23680;SDS011;62915;50.832;4.462;2022-09-21T17:39:18;9.30;;;5.30;;
23680;SDS011;62915;50.832;4.462;2022-09-21T17:46:58;24.55;;;12.07;;
23680;SDS011;62915;50.832;4.462;2022-09-21T17:49:30;25.63;;;14.35;;
23680;SDS011;62915;50.832;4.462;2022-09-21T17:51:56;29.00;;;16.10;;
23680;SDS011;62915;50.832;4.462;2022-09-21T17:54:41;21.55;;;11.93;;
23680;SDS011;62915;50.832;4.462;2022-09-21T18:00:11;39.85;;;24.77;;
23680;SDS011;62915;50.832;4.462;2022-09-21T18:02:43;38.65;;;24.15;;
23680;SDS011;62915;50.832;4.462;2022-09-21T18:05:20;26.50;;;17.88;;
23680;SDS011;62915;50.832;4.462;2022-09-21T18:07:50;29.27;;;18.65;;
23680;SDS011;62915;50.832;4.462;2022-09-21T18:10:17;24.30;;;15.40;;
23680;SDS011;62915;50.832;4.462;2022-09-21T18:21:04;11.30;;;7.80;;
23680;SDS011;62915;50.832;4.462;2022-09-21T18:26:07;14.30;;;7.57;;
23680;SDS011;62915;50.832;4.462;2022-09-21T18:42:03;13.27;;;9.48;;
23680;SDS011;62915;50.832;4.462;2022-09-21T18:44:41;12.65;;;9.05;;
23680;SDS011;62915;50.832;4.462;2022-09-21T18:55:58;13.38;;;10.60;;
23680;SDS011;62915;50.832;4.462;2022-09-21T18:58:25;18.20;;;11.30;;
23680;SDS011;62915;50.832;4.462;2022-09-21T19:00:51;13.82;;;10.90;;
23680;SDS011;62915;50.832;4.462;2022-09-21T19:03:16;17.45;;;11.55;;
23680;SDS011;62915;50.832;4.462;2022-09-21T19:12:39;22.20;;;14.57;;
23680;SDS011;62915;50.832;4.462;2022-09-21T19:25:44;18.15;;;10.02;;
23680;SDS011;62915;50.832;4.462;2022-09-21T19:31:17;17.83;;;9.98;;
23680;SDS011;62915;50.832;4.462;2022-09-21T19:33:43;18.27;;;10.23;;
23680;SDS011;62915;50.832;4.462;2022-09-21T19:36:12;18.45;;;11.70;;
23680;SDS011;62915;50.832;4.462;2022-09-21T19:38:38;22.92;;;13.32;;
23680;SDS011;62915;50.832;4.462;2022-09-21T19:41:09;22.85;;;14.73;;
23680;SDS011;62915;50.832;4.462;2022-09-21T19:50:33;31.25;;;21.48;;